Latest Weather Observations for Westmere

IDV60801

Issued at 7:03 am EDT Thursday 8 December 2016 (issued every 30 minutes, with the page automatically refreshed every 10 minutes)

About weather observations | Map of weather stations | Latest weather observations for VIC | Other Formats
Station Details ID: 089112 Name: WESTMERE Lat: -37.71 Lon: 142.94 Height: 226.0 m
Data from the previous 72 hours. | See also: Recent months at Westmere
Date/Time
EDT
Temp
°C
App
Temp
°C
Dew
Point
°C
Rel
Hum
%
Delta-T
°C
Wind Press
QNH
hPa
Press
MSL
hPa
Rain since
9am
mm
Dir  Spd
km/h
Gust
km/h
Spd
kts
Gust
kts
08/07:00am 17.0 12.4 16.0 94 0.6 N 35 46 19 25 - 994.9 -
08/06:30am 16.6 12.3 15.8 95 0.5 N 33 48 18 26 995.9 995.3 6.8
08/06:08am 16.4 12.0 15.1 92 0.8 N 32 50 17 27 996.1 995.5 3.2
08/06:00am 16.0 11.8 14.7 92 0.8 N 30 43 16 23 996.3 995.7 3.2
08/05:30am 15.7 10.8 14.4 92 0.7 N 33 46 18 25 996.3 995.7 2.8
08/05:00am 16.0 11.1 14.2 89 1.0 N 33 48 18 26 997.5 996.9 1.8
08/04:30am 17.8 11.7 13.1 74 2.7 N 37 52 20 28 997.8 997.3 0.0
08/04:05am 21.0 14.5 10.2 50 5.9 N 35 54 19 29 996.9 996.3 0.0
08/04:00am 20.6 14.6 10.7 53 5.5 N 33 46 18 25 996.8 996.2 0.0
08/03:30am 20.7 14.2 10.5 52 5.6 N 35 48 19 26 996.8 996.2 0.0
08/03:00am 20.1 14.8 11.1 56 5.0 N 30 44 16 24 997.5 996.9 0.0
08/02:30am 18.9 15.3 11.9 64 3.9 N 22 30 12 16 999.1 998.5 0.0
08/02:00am 20.8 16.3 11.4 55 5.3 NNW 26 39 14 21 1000.2 999.6 0.0
08/01:30am 23.5 17.7 8.0 37 8.3 N 28 41 15 22 999.6 999.0 0.0
08/01:00am 22.2 17.7 8.7 42 7.3 NNE 22 30 12 16 1000.1 999.5 0.0
08/12:30am 21.1 17.4 10.3 50 5.9 NNE 20 30 11 16 1001.1 1000.5 0.0
08/12:00am 19.0 16.1 9.5 54 5.1 NNE 15 19 8 10 1001.8 1001.3 0.0
 
Date/Time
EDT
Temp
°C
App
Temp
°C
Dew
Point
°C
Rel
Hum
%
Delta-T
°C
Wind Press
QNH
hPa
Press
MSL
hPa
Rain since
9am
mm
Dir  Spd
km/h
Gust
km/h
Spd
kts
Gust
kts
07/11:30pm 18.7 16.5 9.2 54 5.0 NNE 11 15 6 8 1002.8 1002.3 0.0
07/11:00pm 20.3 17.5 8.6 47 6.2 NNE 13 17 7 9 1003.9 1003.3 0.0
07/10:30pm 20.1 17.1 7.8 45 6.4 NNE 13 19 7 10 1004.3 1003.7 0.0
07/10:00pm 20.0 17.6 8.7 48 6.0 NNE 11 13 6 7 1005.2 1004.6 0.0
07/09:30pm 19.6 17.4 9.2 51 5.5 NNE 11 13 6 7 1005.3 1004.7 0.0
07/09:00pm 18.3 16.9 9.4 56 4.7 NNE 7 9 4 5 1005.5 1005.0 0.0
07/08:30pm 20.1 18.0 8.4 47 6.2 NNE 9 11 5 6 1005.8 1005.3 0.0
07/08:00pm 23.7 20.7 6.0 32 9.1 N 11 17 6 9 1006.3 1005.8 0.0
07/07:30pm 25.4 22.2 5.1 27 10.4 N 11 15 6 8 1006.5 1006.0 0.0
07/07:00pm 26.0 21.2 4.5 25 11.0 NNW 19 26 10 14 1007.0 1006.5 0.0
07/06:30pm 26.7 21.8 3.9 23 11.5 NW 19 30 10 16 1007.3 1006.8 0.0
07/06:00pm 27.3 22.7 3.7 22 12.0 NW 17 28 9 15 1007.7 1007.2 0.0
07/05:30pm 27.1 21.9 3.6 22 11.8 NW 20 33 11 18 1008.3 1007.7 0.0
07/05:00pm 27.4 22.2 2.5 20 12.4 NW 19 33 10 18 1008.9 1008.3 0.0
07/04:30pm 26.8 21.1 0.5 18 12.5 NW 20 35 11 19 1009.6 1009.1 0.0
07/04:00pm 26.4 20.9 1.7 20 12.0 NNW 20 37 11 20 1010.1 1009.6 0.0
07/03:30pm 26.6 22.1 4.4 24 11.3 NNW 17 30 9 16 1010.5 1010.0 0.0
07/03:00pm 26.3 21.8 4.1 24 11.2 NNW 17 33 9 18 1011.0 1010.5 0.0
07/02:30pm 26.6 21.9 3.2 22 11.7 NNW 17 32 9 17 1011.5 1011.0 0.0
07/02:00pm 25.5 20.5 3.5 24 11.0 NNW 19 33 10 18 1012.0 1011.5 0.0
07/01:30pm 24.7 20.9 3.9 26 10.4 N 13 24 7 13 1012.6 1012.0 0.0
07/01:00pm 23.5 20.2 4.5 29 9.5 NNE 11 20 6 11 1013.1 1012.6 0.0
07/12:30pm 22.6 19.7 4.6 31 9.0 N 9 24 5 13 1013.6 1013.1 0.0
07/12:00pm 22.0 18.8 5.0 33 8.5 NE 11 17 6 9 1014.1 1013.6 0.0
07/11:30am 19.5 17.0 3.6 35 7.6 NNW 6 13 3 7 1014.4 1013.9 0.0
07/11:00am 19.1 16.6 3.7 36 7.4 ENE 6 11 3 6 1014.8 1014.3 0.0
07/10:30am 18.4 16.3 3.8 38 7.0 NNE 4 11 2 6 1015.1 1014.6 0.0
07/10:00am 17.6 15.1 4.9 43 6.1 ENE 7 11 4 6 1015.3 1014.8 0.0
07/09:30am 16.7 13.8 4.4 44 5.9 NNE 9 13 5 7 1015.4 1014.9 0.0
07/09:00am 15.6 13.5 6.6 55 4.4 NE 7 11 4 6 1015.4 1014.9 0.0
07/08:30am 13.4 11.8 8.7 73 2.4 NNE 7 9 4 5 1015.2 1014.7 0.0
07/08:00am 10.9 9.9 8.7 86 1.1 NNE 4 6 2 3 1015.3 1014.8 0.0
07/07:30am 8.6 8.1 7.8 95 0.4 CALM 0 0 0 0 1015.3 1014.8 0.0
07/07:00am 5.8 4.7 5.1 95 0.3 CALM 0 0 0 0 1015.1 1014.6 0.0
07/06:30am 3.7 2.2 2.8 94 0.4 CALM 0 0 0 0 1015.0 1014.5 0.0
07/06:00am 3.3 0.9 2.4 94 0.4 S 4 6 2 3 1015.1 1014.6 0.0
07/05:30am 3.8 2.3 2.9 94 0.4 CALM 0 0 0 0 1015.2 1014.7 0.0
07/05:00am 3.7 2.1 2.7 93 0.4 CALM 0 0 0 0 1014.7 1014.2 0.0
07/04:30am 4.7 2.2 3.8 94 0.4 S 6 7 3 4 1014.7 1014.2 0.0
07/04:00am 4.8 3.4 3.8 93 0.4 CALM 0 0 0 0 1014.7 1014.2 0.0
07/03:30am 4.8 3.4 3.3 90 0.6 CALM 0 0 0 0 1014.5 1014.0 0.0
07/03:00am 4.7 3.2 3.2 90 0.6 CALM 0 0 0 0 1014.8 1014.3 0.0
07/02:30am 5.2 3.9 4.0 92 0.5 CALM 0 0 0 0 1015.0 1014.5 0.0
07/02:00am 4.8 3.4 3.5 91 0.5 CALM 0 0 0 0 1015.4 1014.9 0.0
07/01:30am 5.0 3.5 3.2 88 0.8 CALM 0 0 0 0 1015.7 1015.2 0.0
07/01:00am 5.7 4.4 3.9 88 0.8 CALM 0 2 0 1 1015.8 1015.3 0.0
07/12:30am 6.2 4.3 4.8 91 0.6 S 4 6 2 3 1015.9 1015.4 0.0
07/12:00am 6.5 5.3 4.5 87 0.9 CALM 0 0 0 0 1016.0 1015.5 0.0
 
Date/Time
EDT
Temp
°C
App
Temp
°C
Dew
Point
°C
Rel
Hum
%
Delta-T
°C
Wind Press
QNH
hPa
Press
MSL
hPa
Rain since
9am
mm
Dir  Spd
km/h
Gust
km/h
Spd
kts
Gust
kts
06/11:30pm 7.5 6.4 5.3 86 1.0 CALM 0 0 0 0 1016.0 1015.5 0.0
06/11:00pm 8.1 5.7 5.4 83 1.2 S 7 9 4 5 1016.2 1015.7 0.0
06/10:30pm 9.3 6.8 6.4 82 1.4 S 9 11 5 6 1016.4 1015.9 0.0
06/10:00pm 10.0 6.8 6.7 80 1.6 S 13 15 7 8 1016.1 1015.6 0.0
06/09:30pm 10.9 8.4 6.6 75 2.1 S 9 13 5 7 1015.7 1015.2 0.0
06/09:00pm 12.6 9.0 6.6 67 2.9 S 15 19 8 10 1015.5 1015.0 0.0
06/08:30pm 13.9 10.6 6.3 60 3.7 S 13 19 7 10 1015.4 1014.9 0.0
06/08:00pm 15.8 12.7 7.1 56 4.3 S 13 20 7 11 1015.0 1014.5 0.0
06/07:30pm 16.8 12.9 6.9 52 5.0 S 17 22 9 12 1014.7 1014.2 0.0
06/07:00pm 18.0 13.5 6.2 46 5.9 S 19 28 10 15 1014.3 1013.8 0.0
06/06:30pm 18.6 13.9 6.1 44 6.2 S 20 30 11 16 1014.3 1013.8 0.0
06/06:00pm 20.1 15.5 5.7 39 7.2 SSW 19 32 10 17 1014.3 1013.8 0.0
06/05:30pm 19.6 15.5 6.0 41 6.8 SSW 17 28 9 15 1014.2 1013.7 0.0
06/05:00pm 19.7 16.0 6.1 41 6.8 SSE 15 24 8 13 1013.9 1013.4 0.0
06/04:30pm 21.2 17.0 5.6 36 7.8 SSW 17 26 9 14 1013.8 1013.3 0.0
06/04:00pm 22.2 18.9 4.7 32 8.7 WSW 11 19 6 10 1013.8 1013.3 0.0
06/03:30pm 21.0 16.9 4.1 33 8.3 W 15 24 8 13 1013.8 1013.3 0.0
06/03:00pm 19.8 16.0 3.9 35 7.7 WSW 13 28 7 15 1014.0 1013.5 0.0
06/02:30pm 20.0 15.1 4.1 35 7.7 WSW 19 30 10 16 1014.3 1013.8 0.0
06/02:00pm 20.8 16.9 5.2 36 7.8 WSW 15 24 8 13 1014.3 1013.8 0.0
06/01:30pm 19.7 16.0 4.2 36 7.5 WSW 13 26 7 14 1014.5 1014.0 0.0
06/01:00pm 19.8 15.8 5.1 38 7.3 W 15 22 8 12 1014.8 1014.3 0.0
06/12:30pm 18.2 14.5 4.7 41 6.5 WSW 13 26 7 14 1014.9 1014.4 0.0
06/12:00pm 17.2 13.6 5.2 45 5.8 SW 13 20 7 11 1015.0 1014.5 0.0
06/11:30am 16.4 13.8 6.0 50 5.1 WSW 9 17 5 9 1015.0 1014.5 0.0
06/11:00am 15.2 12.6 6.2 55 4.4 WSW 9 15 5 8 1015.1 1014.6 0.0
06/10:30am 16.0 13.4 5.9 51 4.9 SSW 9 17 5 9 1015.0 1014.5 0.0
06/10:00am 14.3 12.1 6.4 59 3.8 SW 7 13 4 7 1015.0 1014.5 0.0
06/09:30am 13.6 11.7 6.5 62 3.4 SSW 6 9 3 5 1015.0 1014.5 0.0
06/09:00am 13.2 11.3 6.8 65 3.1 SSE 6 9 3 5 1014.6 1014.1 0.0
06/08:30am 12.6 10.3 7.3 70 2.6 SSW 9 13 5 7 1015.1 1014.6 0.0
06/08:00am 11.5 10.1 7.4 76 2.0 S 4 7 2 4 1015.0 1014.5 0.0
06/07:30am 10.6 9.7 7.7 82 1.4 S 2 4 1 2 1014.2 1013.7 0.0
06/07:00am 10.3 8.4 7.5 83 1.4 SSE 7 13 4 7 1014.0 1013.5 0.0
06/06:30am 10.5 8.3 7.7 83 1.4 S 9 13 5 7 1014.1 1013.6 0.0
06/06:00am 10.6 8.9 8.2 85 1.2 S 7 11 4 6 1013.7 1013.2 0.0
06/05:30am 10.4 8.2 8.0 85 1.2 S 9 13 5 7 1013.1 1012.6 0.0
06/05:00am 10.4 8.9 8.3 87 1.0 SSW 6 9 3 5 1012.9 1012.3 0.0
06/04:30am 10.3 8.8 8.4 88 0.9 SSW 6 7 3 4 1012.7 1012.1 0.0
06/04:00am 10.2 9.4 8.3 88 0.9 S 2 6 1 3 1012.5 1011.9 0.0
06/03:30am 9.9 9.4 8.0 88 0.9 CALM 0 0 0 0 1012.6 1012.0 0.0
06/03:00am 9.2 8.6 7.6 90 0.8 CALM 0 0 0 0 1012.2 1011.7 0.0
06/02:30am 8.5 7.4 7.0 90 0.7 S 2 6 1 3 1012.1 1011.6 0.0
06/02:00am 8.7 6.9 7.3 91 0.7 S 6 9 3 5 1012.6 1012.0 0.0
06/01:30am 8.4 6.5 6.9 90 0.7 S 6 6 3 3 1013.1 1012.6 0.0
06/01:00am 8.7 6.3 7.2 90 0.7 S 9 9 5 5 1013.8 1013.3 0.0
06/12:30am 9.2 7.5 7.5 89 0.8 S 6 7 3 4 1014.2 1013.7 0.0
06/12:00am 9.5 7.8 7.4 87 1.0 S 6 9 3 5 1014.5 1014.0 0.0
 
Date/Time
EDT
Temp
°C
App
Temp
°C
Dew
Point
°C
Rel
Hum
%
Delta-T
°C
Wind Press
QNH
hPa
Press
MSL
hPa
Rain since
9am
mm
Dir  Spd
km/h
Gust
km/h
Spd
kts
Gust
kts
05/11:30pm 10.1 8.9 7.9 86 1.1 SSE 4 6 2 3 1014.2 1013.7 0.0
05/11:00pm 10.5 8.8 8.3 86 1.1 SE 7 9 4 5 1014.4 1013.9 0.0
05/10:30pm 11.1 9.4 8.5 84 1.3 S 7 9 4 5 1014.1 1013.6 0.0
05/10:00pm 11.5 9.8 8.2 80 1.6 S 7 11 4 6 1013.9 1013.4 0.0
05/09:30pm 12.1 9.2 8.2 77 1.9 S 13 17 7 9 1014.8 1014.3 0.0
05/09:00pm 12.7 9.9 8.4 75 2.2 S 13 17 7 9 1014.9 1014.4 0.0
05/08:30pm 13.7 10.6 8.7 72 2.5 S 15 22 8 12 1014.3 1013.8 0.0
05/08:00pm 14.5 11.7 8.7 68 3.0 S 13 22 7 12 1013.8 1013.3 0.0
05/07:30pm 15.3 12.6 8.8 65 3.4 S 13 19 7 10 1013.0 1012.4 0.0
05/07:00pm 16.0 12.5 8.7 62 3.8 S 17 22 9 12 1013.5 1013.0 0.0
05/06:30pm 16.9 13.0 8.8 59 4.2 SSW 19 24 10 13 1013.3 1012.8 0.0
05/06:00pm 17.8 14.7 8.9 56 4.7 SSW 15 24 8 13 1013.2 1012.7 0.0
05/05:30pm 19.2 15.7 8.8 51 5.5 SSW 17 24 9 13 1013.1 1012.6 0.0
05/05:00pm 19.4 15.6 9.0 51 5.5 S 19 26 10 14 1012.3 1011.8 0.0
05/04:30pm 19.8 16.1 9.4 51 5.6 S 19 26 10 14 1012.5 1011.9 0.0
05/04:00pm 20.0 16.8 8.4 47 6.1 S 15 24 8 13 1012.7 1012.1 0.0
05/03:30pm 20.3 17.4 8.0 45 6.4 SW 13 22 7 12 1012.7 1012.1 0.0
05/03:00pm 20.9 17.3 8.2 44 6.7 SSW 17 26 9 14 1012.8 1012.2 0.0
05/02:30pm 20.4 17.6 7.1 42 6.8 SSW 11 20 6 11 1012.5 1011.9 0.0
05/02:00pm 20.7 17.2 7.0 41 7.1 SSW 15 26 8 14 1012.6 1012.0 0.0
05/01:30pm 20.5 16.8 6.5 40 7.1 SSW 15 26 8 14 1012.8 1012.2 0.0
05/01:00pm 19.9 16.0 7.0 43 6.6 SW 17 24 9 13 1012.9 1012.3 0.0
05/12:30pm 19.6 15.9 6.4 42 6.7 SSW 15 24 8 13 1013.0 1012.4 0.0
05/12:00pm 18.7 15.1 6.9 46 6.0 SW 15 26 8 14 1013.2 1012.7 0.0
05/11:30am 18.9 15.8 7.4 47 5.9 S 13 26 7 14 1013.2 1012.7 0.0
05/11:00am 17.2 13.9 6.4 49 5.4 SSW 13 24 7 13 1013.4 1012.9 0.0
05/10:30am 17.0 12.7 6.8 51 5.1 SSW 19 28 10 15 1013.3 1012.8 0.0
05/10:00am 16.1 12.6 7.3 56 4.4 SSW 15 24 8 13 1013.1 1012.6 0.0
05/09:30am 15.3 11.5 7.6 60 3.9 SW 17 24 9 13 1012.7 1012.1 0.0
05/09:00am 14.7 11.5 8.4 66 3.2 WSW 15 24 8 13 1012.3 1011.8 0.4
05/08:30am 14.1 10.2 8.5 69 2.8 WSW 19 30 10 16 1012.0 1011.5 0.4
05/08:00am 13.8 10.2 8.4 70 2.7 WSW 17 26 9 14 1011.7 1011.2 0.4
05/07:30am 12.9 8.4 8.4 74 2.3 WSW 22 35 12 19 1010.8 1010.3 0.4

Other Formats:

Comma delimited format used in spreadsheet applications
http://www.bom.gov.au/fwo/IDV60801/IDV60801.95840.axf

JavaScript Object Notation format (JSON) in row-major order
http://www.bom.gov.au/fwo/IDV60801/IDV60801.95840.json